sensor_id;sensor_type;location;lat;lon;timestamp;temperature;humidity
33927;DHT22;20485;50.992;5.550;2023-05-31T00:01:39;12.50;99.90
33927;DHT22;20485;50.992;5.550;2023-05-31T00:04:05;12.50;99.90
33927;DHT22;20485;50.992;5.550;2023-05-31T00:06:33;12.40;99.90
33927;DHT22;20485;50.992;5.550;2023-05-31T00:08:59;12.50;99.90
33927;DHT22;20485;50.992;5.550;2023-05-31T00:11:24;12.50;99.90
33927;DHT22;20485;50.992;5.550;2023-05-31T00:13:52;12.50;99.90
33927;DHT22;20485;50.992;5.550;2023-05-31T00:16:18;12.40;99.90
33927;DHT22;20485;50.992;5.550;2023-05-31T00:18:44;12.30;99.90
33927;DHT22;20485;50.992;5.550;2023-05-31T00:21:09;12.30;99.90
33927;DHT22;20485;50.992;5.550;2023-05-31T00:23:35;12.30;99.90
33927;DHT22;20485;50.992;5.550;2023-05-31T00:26:01;12.30;99.90
33927;DHT22;20485;50.992;5.550;2023-05-31T00:28:26;12.30;99.90
33927;DHT22;20485;50.992;5.550;2023-05-31T00:30:52;12.20;99.90
33927;DHT22;20485;50.992;5.550;2023-05-31T00:33:17;12.10;99.90
33927;DHT22;20485;50.992;5.550;2023-05-31T00:35:43;12.10;99.90
33927;DHT22;20485;50.992;5.550;2023-05-31T00:38:09;12.00;99.90
33927;DHT22;20485;50.992;5.550;2023-05-31T00:40:35;12.00;99.90
33927;DHT22;20485;50.992;5.550;2023-05-31T00:43:01;11.90;99.90
33927;DHT22;20485;50.992;5.550;2023-05-31T00:45:26;12.00;99.90
33927;DHT22;20485;50.992;5.550;2023-05-31T00:47:54;11.90;99.90
33927;DHT22;20485;50.992;5.550;2023-05-31T00:50:20;11.80;99.90
33927;DHT22;20485;50.992;5.550;2023-05-31T00:52:48;11.80;99.90
33927;DHT22;20485;50.992;5.550;2023-05-31T00:55:14;11.80;99.90
33927;DHT22;20485;50.992;5.550;2023-05-31T00:57:41;11.90;99.90
33927;DHT22;20485;50.992;5.550;2023-05-31T01:00:07;11.90;99.90
33927;DHT22;20485;50.992;5.550;2023-05-31T01:02:35;11.80;99.90
33927;DHT22;20485;50.992;5.550;2023-05-31T01:05:05;11.80;99.90
33927;DHT22;20485;50.992;5.550;2023-05-31T01:07:30;11.80;99.90
33927;DHT22;20485;50.992;5.550;2023-05-31T01:09:56;11.80;99.90
33927;DHT22;20485;50.992;5.550;2023-05-31T01:15:36;11.70;99.90
33927;DHT22;20485;50.992;5.550;2023-05-31T01:18:13;11.70;99.90
33927;DHT22;20485;50.992;5.550;2023-05-31T01:20:45;11.70;99.90
33927;DHT22;20485;50.992;5.550;2023-05-31T01:23:34;11.60;99.90
33927;DHT22;20485;50.992;5.550;2023-05-31T01:28:51;11.50;99.90
33927;DHT22;20485;50.992;5.550;2023-05-31T01:31:21;11.50;99.90
33927;DHT22;20485;50.992;5.550;2023-05-31T01:33:51;11.50;99.90
33927;DHT22;20485;50.992;5.550;2023-05-31T01:36:17;11.50;99.90
33927;DHT22;20485;50.992;5.550;2023-05-31T01:38:43;11.50;99.90
33927;DHT22;20485;50.992;5.550;2023-05-31T01:41:09;11.50;99.90
33927;DHT22;20485;50.992;5.550;2023-05-31T01:43:42;11.40;99.90
33927;DHT22;20485;50.992;5.550;2023-05-31T01:46:10;11.40;99.90
33927;DHT22;20485;50.992;5.550;2023-05-31T01:48:39;11.30;99.90
33927;DHT22;20485;50.992;5.550;2023-05-31T01:51:06;11.30;99.90
33927;DHT22;20485;50.992;5.550;2023-05-31T01:53:33;11.20;99.90
33927;DHT22;20485;50.992;5.550;2023-05-31T01:56:00;11.20;99.90
33927;DHT22;20485;50.992;5.550;2023-05-31T01:58:29;11.20;99.90
33927;DHT22;20485;50.992;5.550;2023-05-31T02:00:56;11.20;99.90
33927;DHT22;20485;50.992;5.550;2023-05-31T02:03:22;11.20;99.90
33927;DHT22;20485;50.992;5.550;2023-05-31T02:05:58;11.10;99.90
33927;DHT22;20485;50.992;5.550;2023-05-31T02:08:25;11.20;99.90
33927;DHT22;20485;50.992;5.550;2023-05-31T02:10:52;11.10;99.90
33927;DHT22;20485;50.992;5.550;2023-05-31T02:13:18;11.10;99.90
33927;DHT22;20485;50.992;5.550;2023-05-31T02:15:44;11.10;99.90
33927;DHT22;20485;50.992;5.550;2023-05-31T02:18:10;11.10;99.90
33927;DHT22;20485;50.992;5.550;2023-05-31T02:20:36;11.00;99.90
33927;DHT22;20485;50.992;5.550;2023-05-31T02:23:01;11.00;99.90
33927;DHT22;20485;50.992;5.550;2023-05-31T02:25:27;11.00;99.90
33927;DHT22;20485;50.992;5.550;2023-05-31T02:27:53;11.00;99.90
33927;DHT22;20485;50.992;5.550;2023-05-31T02:30:18;11.00;99.90
33927;DHT22;20485;50.992;5.550;2023-05-31T02:32:44;10.90;99.90
33927;DHT22;20485;50.992;5.550;2023-05-31T02:35:11;10.90;99.90
33927;DHT22;20485;50.992;5.550;2023-05-31T02:37:38;10.90;99.90
33927;DHT22;20485;50.992;5.550;2023-05-31T02:40:06;10.90;99.90
33927;DHT22;20485;50.992;5.550;2023-05-31T02:42:37;10.90;99.90
33927;DHT22;20485;50.992;5.550;2023-05-31T02:45:03;10.80;99.90
33927;DHT22;20485;50.992;5.550;2023-05-31T02:47:29;10.80;99.90
33927;DHT22;20485;50.992;5.550;2023-05-31T02:49:55;10.70;99.90
33927;DHT22;20485;50.992;5.550;2023-05-31T02:52:21;10.70;99.90
33927;DHT22;20485;50.992;5.550;2023-05-31T02:54:49;10.70;99.90
33927;DHT22;20485;50.992;5.550;2023-05-31T02:57:15;10.70;99.90
33927;DHT22;20485;50.992;5.550;2023-05-31T02:59:43;10.60;99.90
33927;DHT22;20485;50.992;5.550;2023-05-31T03:02:09;10.70;99.90
33927;DHT22;20485;50.992;5.550;2023-05-31T03:04:35;10.70;99.90
33927;DHT22;20485;50.992;5.550;2023-05-31T03:07:01;10.70;99.90
33927;DHT22;20485;50.992;5.550;2023-05-31T03:09:27;10.70;99.90
33927;DHT22;20485;50.992;5.550;2023-05-31T03:11:53;10.60;99.90
33927;DHT22;20485;50.992;5.550;2023-05-31T03:14:18;10.60;99.90
33927;DHT22;20485;50.992;5.550;2023-05-31T03:16:45;10.60;99.90
33927;DHT22;20485;50.992;5.550;2023-05-31T03:19:11;10.50;99.90
33927;DHT22;20485;50.992;5.550;2023-05-31T03:21:38;10.50;99.90
33927;DHT22;20485;50.992;5.550;2023-05-31T03:24:04;10.50;99.90
33927;DHT22;20485;50.992;5.550;2023-05-31T03:26:30;10.50;99.90
33927;DHT22;20485;50.992;5.550;2023-05-31T03:28:56;10.50;99.90
33927;DHT22;20485;50.992;5.550;2023-05-31T03:31:21;10.40;99.90
33927;DHT22;20485;50.992;5.550;2023-05-31T03:33:47;10.50;99.90
33927;DHT22;20485;50.992;5.550;2023-05-31T03:36:13;10.50;99.90
33927;DHT22;20485;50.992;5.550;2023-05-31T03:38:38;10.40;99.90
33927;DHT22;20485;50.992;5.550;2023-05-31T03:41:04;10.50;99.90
33927;DHT22;20485;50.992;5.550;2023-05-31T03:43:30;10.50;99.90
33927;DHT22;20485;50.992;5.550;2023-05-31T03:45:56;10.40;99.90
33927;DHT22;20485;50.992;5.550;2023-05-31T03:48:28;10.40;99.90
33927;DHT22;20485;50.992;5.550;2023-05-31T03:50:54;10.40;99.90
33927;DHT22;20485;50.992;5.550;2023-05-31T03:53:20;10.40;99.90
33927;DHT22;20485;50.992;5.550;2023-05-31T03:55:45;10.40;99.90
33927;DHT22;20485;50.992;5.550;2023-05-31T03:58:11;10.40;99.90
33927;DHT22;20485;50.992;5.550;2023-05-31T04:00:38;10.40;99.90
33927;DHT22;20485;50.992;5.550;2023-05-31T04:03:04;10.40;99.90
33927;DHT22;20485;50.992;5.550;2023-05-31T04:05:29;10.40;99.90
33927;DHT22;20485;50.992;5.550;2023-05-31T04:07:55;10.40;99.90
33927;DHT22;20485;50.992;5.550;2023-05-31T04:10:21;10.50;99.90
33927;DHT22;20485;50.992;5.550;2023-05-31T04:12:46;10.50;99.90
33927;DHT22;20485;50.992;5.550;2023-05-31T04:15:12;10.50;99.90
33927;DHT22;20485;50.992;5.550;2023-05-31T04:17:37;10.50;99.90
33927;DHT22;20485;50.992;5.550;2023-05-31T04:20:03;10.50;99.90
33927;DHT22;20485;50.992;5.550;2023-05-31T04:22:38;10.50;99.90
33927;DHT22;20485;50.992;5.550;2023-05-31T04:25:04;10.60;99.90
33927;DHT22;20485;50.992;5.550;2023-05-31T04:27:31;10.50;99.90
33927;DHT22;20485;50.992;5.550;2023-05-31T04:29:57;10.50;99.90
33927;DHT22;20485;50.992;5.550;2023-05-31T04:32:26;10.60;99.90
33927;DHT22;20485;50.992;5.550;2023-05-31T04:34:53;10.60;99.90
33927;DHT22;20485;50.992;5.550;2023-05-31T04:37:25;10.70;99.90
33927;DHT22;20485;50.992;5.550;2023-05-31T04:39:52;10.80;99.90
33927;DHT22;20485;50.992;5.550;2023-05-31T04:42:19;10.80;99.90
33927;DHT22;20485;50.992;5.550;2023-05-31T04:44:44;11.00;99.90
33927;DHT22;20485;50.992;5.550;2023-05-31T04:47:10;11.00;99.90
33927;DHT22;20485;50.992;5.550;2023-05-31T04:49:36;11.00;99.90
33927;DHT22;20485;50.992;5.550;2023-05-31T04:52:02;11.10;99.90
33927;DHT22;20485;50.992;5.550;2023-05-31T04:54:28;11.20;99.90
33927;DHT22;20485;50.992;5.550;2023-05-31T04:56:54;11.30;99.90
33927;DHT22;20485;50.992;5.550;2023-05-31T04:59:19;11.50;99.90
33927;DHT22;20485;50.992;5.550;2023-05-31T05:01:45;11.50;99.90
33927;DHT22;20485;50.992;5.550;2023-05-31T05:04:11;11.70;99.90
33927;DHT22;20485;50.992;5.550;2023-05-31T05:06:37;11.90;99.90
33927;DHT22;20485;50.992;5.550;2023-05-31T05:09:03;12.00;99.90
33927;DHT22;20485;50.992;5.550;2023-05-31T05:11:28;12.20;99.90
33927;DHT22;20485;50.992;5.550;2023-05-31T05:13:54;12.30;99.90
33927;DHT22;20485;50.992;5.550;2023-05-31T05:16:20;12.10;99.90
33927;DHT22;20485;50.992;5.550;2023-05-31T05:18:45;12.30;99.90
33927;DHT22;20485;50.992;5.550;2023-05-31T05:21:11;12.20;99.90
33927;DHT22;20485;50.992;5.550;2023-05-31T05:23:37;12.20;99.90
33927;DHT22;20485;50.992;5.550;2023-05-31T05:26:04;12.20;99.90
33927;DHT22;20485;50.992;5.550;2023-05-31T05:28:30;12.10;99.90
33927;DHT22;20485;50.992;5.550;2023-05-31T05:30:56;12.20;99.90
33927;DHT22;20485;50.992;5.550;2023-05-31T05:33:22;12.20;99.90
33927;DHT22;20485;50.992;5.550;2023-05-31T05:35:47;12.30;99.90
33927;DHT22;20485;50.992;5.550;2023-05-31T05:38:13;12.30;99.90
33927;DHT22;20485;50.992;5.550;2023-05-31T05:40:38;12.30;99.90
33927;DHT22;20485;50.992;5.550;2023-05-31T05:43:05;12.40;99.90
33927;DHT22;20485;50.992;5.550;2023-05-31T05:45:31;12.40;99.90
33927;DHT22;20485;50.992;5.550;2023-05-31T05:47:57;12.50;99.90
33927;DHT22;20485;50.992;5.550;2023-05-31T05:50:22;12.60;99.90
33927;DHT22;20485;50.992;5.550;2023-05-31T05:52:48;12.70;99.90
33927;DHT22;20485;50.992;5.550;2023-05-31T05:55:14;12.70;99.90
33927;DHT22;20485;50.992;5.550;2023-05-31T05:57:40;12.80;99.90
33927;DHT22;20485;50.992;5.550;2023-05-31T06:00:06;12.90;99.90
33927;DHT22;20485;50.992;5.550;2023-05-31T06:02:39;12.90;99.90
33927;DHT22;20485;50.992;5.550;2023-05-31T06:05:06;13.00;99.90
33927;DHT22;20485;50.992;5.550;2023-05-31T06:07:37;13.10;99.90
33927;DHT22;20485;50.992;5.550;2023-05-31T06:10:06;13.10;99.90
33927;DHT22;20485;50.992;5.550;2023-05-31T06:12:33;13.30;99.90
33927;DHT22;20485;50.992;5.550;2023-05-31T06:14:59;13.30;99.90
33927;DHT22;20485;50.992;5.550;2023-05-31T06:17:24;13.40;99.90
33927;DHT22;20485;50.992;5.550;2023-05-31T06:19:50;13.50;99.90
33927;DHT22;20485;50.992;5.550;2023-05-31T06:22:16;13.60;99.90
33927;DHT22;20485;50.992;5.550;2023-05-31T06:24:42;13.70;99.90
33927;DHT22;20485;50.992;5.550;2023-05-31T06:27:08;13.70;99.90
33927;DHT22;20485;50.992;5.550;2023-05-31T06:29:34;13.60;99.90
33927;DHT22;20485;50.992;5.550;2023-05-31T06:32:00;13.70;99.90
33927;DHT22;20485;50.992;5.550;2023-05-31T06:34:25;13.80;99.90
33927;DHT22;20485;50.992;5.550;2023-05-31T06:36:51;13.90;99.90
33927;DHT22;20485;50.992;5.550;2023-05-31T06:39:18;14.10;99.90
33927;DHT22;20485;50.992;5.550;2023-05-31T06:41:44;14.10;99.90
33927;DHT22;20485;50.992;5.550;2023-05-31T06:44:10;14.10;99.90
33927;DHT22;20485;50.992;5.550;2023-05-31T06:46:35;14.20;99.90
33927;DHT22;20485;50.992;5.550;2023-05-31T06:49:01;14.30;99.90
33927;DHT22;20485;50.992;5.550;2023-05-31T06:51:27;14.30;99.90
33927;DHT22;20485;50.992;5.550;2023-05-31T06:53:52;14.50;99.90
33927;DHT22;20485;50.992;5.550;2023-05-31T06:56:18;14.60;99.90
33927;DHT22;20485;50.992;5.550;2023-05-31T06:58:44;14.70;99.90
33927;DHT22;20485;50.992;5.550;2023-05-31T07:01:10;14.60;99.90
33927;DHT22;20485;50.992;5.550;2023-05-31T07:03:37;14.60;99.90
33927;DHT22;20485;50.992;5.550;2023-05-31T07:06:02;14.70;99.90
33927;DHT22;20485;50.992;5.550;2023-05-31T07:08:28;14.90;99.90
33927;DHT22;20485;50.992;5.550;2023-05-31T07:10:54;15.10;99.90
33927;DHT22;20485;50.992;5.550;2023-05-31T07:13:19;15.10;99.90
33927;DHT22;20485;50.992;5.550;2023-05-31T07:15:45;15.20;99.90
33927;DHT22;20485;50.992;5.550;2023-05-31T07:18:11;15.10;99.90
33927;DHT22;20485;50.992;5.550;2023-05-31T07:20:37;15.20;99.90
33927;DHT22;20485;50.992;5.550;2023-05-31T07:23:03;15.30;99.90
33927;DHT22;20485;50.992;5.550;2023-05-31T07:25:29;15.50;99.90
33927;DHT22;20485;50.992;5.550;2023-05-31T07:27:54;15.50;99.90
33927;DHT22;20485;50.992;5.550;2023-05-31T07:30:20;15.50;99.90
33927;DHT22;20485;50.992;5.550;2023-05-31T07:32:46;15.60;99.90
33927;DHT22;20485;50.992;5.550;2023-05-31T07:35:11;15.70;99.90
33927;DHT22;20485;50.992;5.550;2023-05-31T07:37:37;15.80;99.90
33927;DHT22;20485;50.992;5.550;2023-05-31T07:40:03;15.90;99.90
33927;DHT22;20485;50.992;5.550;2023-05-31T07:42:32;16.00;99.90
33927;DHT22;20485;50.992;5.550;2023-05-31T07:44:58;16.10;99.90
33927;DHT22;20485;50.992;5.550;2023-05-31T07:47:24;16.20;99.90
33927;DHT22;20485;50.992;5.550;2023-05-31T07:49:50;16.20;99.90
33927;DHT22;20485;50.992;5.550;2023-05-31T07:52:17;16.10;99.90
33927;DHT22;20485;50.992;5.550;2023-05-31T07:54:47;16.30;99.90
33927;DHT22;20485;50.992;5.550;2023-05-31T07:57:14;16.30;99.90
33927;DHT22;20485;50.992;5.550;2023-05-31T07:59:40;16.40;99.90
33927;DHT22;20485;50.992;5.550;2023-05-31T08:02:06;16.40;99.90
33927;DHT22;20485;50.992;5.550;2023-05-31T08:04:31;16.50;99.90
33927;DHT22;20485;50.992;5.550;2023-05-31T08:06:57;16.70;99.90
33927;DHT22;20485;50.992;5.550;2023-05-31T08:09:23;16.70;99.90
33927;DHT22;20485;50.992;5.550;2023-05-31T08:11:48;16.80;99.90
33927;DHT22;20485;50.992;5.550;2023-05-31T08:14:14;16.80;99.90
33927;DHT22;20485;50.992;5.550;2023-05-31T08:16:40;17.00;99.90
33927;DHT22;20485;50.992;5.550;2023-05-31T08:19:07;16.90;99.90
33927;DHT22;20485;50.992;5.550;2023-05-31T08:21:32;16.90;99.90
33927;DHT22;20485;50.992;5.550;2023-05-31T08:23:58;17.00;99.90
33927;DHT22;20485;50.992;5.550;2023-05-31T08:26:26;17.10;99.90
33927;DHT22;20485;50.992;5.550;2023-05-31T08:28:51;17.20;99.90
33927;DHT22;20485;50.992;5.550;2023-05-31T08:31:17;17.40;99.90
33927;DHT22;20485;50.992;5.550;2023-05-31T08:33:57;17.40;99.90
33927;DHT22;20485;50.992;5.550;2023-05-31T08:36:23;17.40;99.90
33927;DHT22;20485;50.992;5.550;2023-05-31T08:38:49;17.50;99.90
33927;DHT22;20485;50.992;5.550;2023-05-31T08:41:15;17.50;99.90
33927;DHT22;20485;50.992;5.550;2023-05-31T08:43:42;17.70;99.90
33927;DHT22;20485;50.992;5.550;2023-05-31T08:46:08;17.80;99.90
33927;DHT22;20485;50.992;5.550;2023-05-31T08:48:42;17.70;99.90
33927;DHT22;20485;50.992;5.550;2023-05-31T08:51:09;17.70;99.90
33927;DHT22;20485;50.992;5.550;2023-05-31T08:53:34;17.70;99.90
33927;DHT22;20485;50.992;5.550;2023-05-31T08:56:02;17.80;99.90
33927;DHT22;20485;50.992;5.550;2023-05-31T08:58:30;17.90;99.90
33927;DHT22;20485;50.992;5.550;2023-05-31T09:00:56;17.90;99.90
33927;DHT22;20485;50.992;5.550;2023-05-31T09:03:23;18.00;99.90
33927;DHT22;20485;50.992;5.550;2023-05-31T09:05:48;18.20;99.90
33927;DHT22;20485;50.992;5.550;2023-05-31T09:08:15;18.20;99.90
33927;DHT22;20485;50.992;5.550;2023-05-31T09:10:41;18.40;99.90
33927;DHT22;20485;50.992;5.550;2023-05-31T09:13:07;18.50;99.90
33927;DHT22;20485;50.992;5.550;2023-05-31T09:15:37;18.50;99.90
33927;DHT22;20485;50.992;5.550;2023-05-31T09:18:16;18.60;99.90
33927;DHT22;20485;50.992;5.550;2023-05-31T09:20:42;18.60;99.90
33927;DHT22;20485;50.992;5.550;2023-05-31T09:23:09;18.70;99.90
33927;DHT22;20485;50.992;5.550;2023-05-31T09:25:45;18.70;99.90
33927;DHT22;20485;50.992;5.550;2023-05-31T09:28:11;18.80;99.90
33927;DHT22;20485;50.992;5.550;2023-05-31T09:30:38;19.00;99.90
33927;DHT22;20485;50.992;5.550;2023-05-31T09:33:03;18.90;99.90
33927;DHT22;20485;50.992;5.550;2023-05-31T09:35:30;18.90;99.90
33927;DHT22;20485;50.992;5.550;2023-05-31T09:37:55;19.10;99.90
33927;DHT22;20485;50.992;5.550;2023-05-31T09:40:30;19.20;99.90
33927;DHT22;20485;50.992;5.550;2023-05-31T09:42:56;19.40;99.90
33927;DHT22;20485;50.992;5.550;2023-05-31T09:45:23;19.30;99.90
33927;DHT22;20485;50.992;5.550;2023-05-31T09:47:49;19.40;99.90
33927;DHT22;20485;50.992;5.550;2023-05-31T09:50:20;19.60;99.90
33927;DHT22;20485;50.992;5.550;2023-05-31T09:52:55;19.70;99.90
33927;DHT22;20485;50.992;5.550;2023-05-31T09:55:21;19.80;99.90
33927;DHT22;20485;50.992;5.550;2023-05-31T09:57:47;19.90;99.90
33927;DHT22;20485;50.992;5.550;2023-05-31T10:00:15;20.00;99.90
33927;DHT22;20485;50.992;5.550;2023-05-31T10:02:55;20.10;99.90
33927;DHT22;20485;50.992;5.550;2023-05-31T10:05:21;19.90;99.90
33927;DHT22;20485;50.992;5.550;2023-05-31T10:07:50;19.90;99.90
33927;DHT22;20485;50.992;5.550;2023-05-31T10:10:16;20.10;99.90
33927;DHT22;20485;50.992;5.550;2023-05-31T10:12:57;20.10;99.90
33927;DHT22;20485;50.992;5.550;2023-05-31T10:15:24;20.10;99.90
33927;DHT22;20485;50.992;5.550;2023-05-31T10:18:02;20.30;99.90
33927;DHT22;20485;50.992;5.550;2023-05-31T10:20:39;20.30;99.90
33927;DHT22;20485;50.992;5.550;2023-05-31T10:23:25;20.50;99.90
33927;DHT22;20485;50.992;5.550;2023-05-31T10:28:56;20.60;99.90
33927;DHT22;20485;50.992;5.550;2023-05-31T10:31:28;20.80;99.90
33927;DHT22;20485;50.992;5.550;2023-05-31T10:34:07;20.80;99.90
33927;DHT22;20485;50.992;5.550;2023-05-31T10:36:35;20.80;99.90
33927;DHT22;20485;50.992;5.550;2023-05-31T10:39:24;20.70;99.90
33927;DHT22;20485;50.992;5.550;2023-05-31T10:42:19;20.80;99.90
33927;DHT22;20485;50.992;5.550;2023-05-31T10:48:20;21.00;99.90
33927;DHT22;20485;50.992;5.550;2023-05-31T10:50:57;21.20;99.90
33927;DHT22;20485;50.992;5.550;2023-05-31T10:53:31;21.20;99.90
33927;DHT22;20485;50.992;5.550;2023-05-31T10:56:04;21.30;99.90
33927;DHT22;20485;50.992;5.550;2023-05-31T10:58:34;21.40;99.90
33927;DHT22;20485;50.992;5.550;2023-05-31T11:01:06;21.40;99.90
33927;DHT22;20485;50.992;5.550;2023-05-31T11:03:34;21.30;99.90
33927;DHT22;20485;50.992;5.550;2023-05-31T11:06:02;21.40;99.90
33927;DHT22;20485;50.992;5.550;2023-05-31T11:08:32;21.40;99.90
33927;DHT22;20485;50.992;5.550;2023-05-31T11:16:25;21.70;99.90
33927;DHT22;20485;50.992;5.550;2023-05-31T11:19:02;21.60;99.10
33927;DHT22;20485;50.992;5.550;2023-05-31T11:21:51;21.60;99.80
33927;DHT22;20485;50.992;5.550;2023-05-31T11:24:29;21.70;99.90
33927;DHT22;20485;50.992;5.550;2023-05-31T11:27:02;21.80;99.80
33927;DHT22;20485;50.992;5.550;2023-05-31T11:32:18;21.80;99.40
33927;DHT22;20485;50.992;5.550;2023-05-31T11:34:51;22.00;99.90
33927;DHT22;20485;50.992;5.550;2023-05-31T11:37:34;22.00;98.40
33927;DHT22;20485;50.992;5.550;2023-05-31T11:40:05;21.90;99.50
33927;DHT22;20485;50.992;5.550;2023-05-31T11:42:35;21.90;99.80
33927;DHT22;20485;50.992;5.550;2023-05-31T11:45:05;22.10;99.30
33927;DHT22;20485;50.992;5.550;2023-05-31T11:47:33;22.20;98.90
33927;DHT22;20485;50.992;5.550;2023-05-31T11:50:02;22.30;97.60
33927;DHT22;20485;50.992;5.550;2023-05-31T11:52:29;22.50;97.60
33927;DHT22;20485;50.992;5.550;2023-05-31T11:55:04;22.60;99.00
33927;DHT22;20485;50.992;5.550;2023-05-31T11:57:30;22.70;96.80
33927;DHT22;20485;50.992;5.550;2023-05-31T12:00:05;22.70;96.40
33927;DHT22;20485;50.992;5.550;2023-05-31T12:02:36;22.70;96.50
33927;DHT22;20485;50.992;5.550;2023-05-31T12:05:05;22.70;96.10
33927;DHT22;20485;50.992;5.550;2023-05-31T12:07:34;22.40;96.50
33927;DHT22;20485;50.992;5.550;2023-05-31T12:10:00;22.60;96.20
33927;DHT22;20485;50.992;5.550;2023-05-31T12:12:26;22.70;96.40
33927;DHT22;20485;50.992;5.550;2023-05-31T12:14:52;22.90;95.80
33927;DHT22;20485;50.992;5.550;2023-05-31T12:17:19;23.10;95.70
33927;DHT22;20485;50.992;5.550;2023-05-31T12:19:47;23.20;95.00
33927;DHT22;20485;50.992;5.550;2023-05-31T12:22:14;23.30;94.70
33927;DHT22;20485;50.992;5.550;2023-05-31T12:24:50;23.30;95.80
33927;DHT22;20485;50.992;5.550;2023-05-31T12:27:17;23.10;94.00
33927;DHT22;20485;50.992;5.550;2023-05-31T12:29:43;23.00;94.20
33927;DHT22;20485;50.992;5.550;2023-05-31T12:32:09;23.20;93.40
33927;DHT22;20485;50.992;5.550;2023-05-31T12:34:37;23.40;95.20
33927;DHT22;20485;50.992;5.550;2023-05-31T12:37:07;23.40;94.10
33927;DHT22;20485;50.992;5.550;2023-05-31T12:39:33;23.30;93.70
33927;DHT22;20485;50.992;5.550;2023-05-31T12:42:00;23.50;92.70
33927;DHT22;20485;50.992;5.550;2023-05-31T12:44:28;23.30;92.60
33927;DHT22;20485;50.992;5.550;2023-05-31T12:47:00;23.50;93.40
33927;DHT22;20485;50.992;5.550;2023-05-31T12:49:27;23.50;93.60
33927;DHT22;20485;50.992;5.550;2023-05-31T12:54:29;23.60;94.40
33927;DHT22;20485;50.992;5.550;2023-05-31T12:57:00;23.70;92.50
33927;DHT22;20485;50.992;5.550;2023-05-31T12:59:30;23.80;94.00
33927;DHT22;20485;50.992;5.550;2023-05-31T13:01:56;23.80;92.00
33927;DHT22;20485;50.992;5.550;2023-05-31T13:04:22;23.90;93.50
33927;DHT22;20485;50.992;5.550;2023-05-31T13:06:48;24.00;93.20
33927;DHT22;20485;50.992;5.550;2023-05-31T13:09:15;24.10;93.00
33927;DHT22;20485;50.992;5.550;2023-05-31T13:11:41;24.00;92.50
33927;DHT22;20485;50.992;5.550;2023-05-31T13:14:09;24.20;92.50
33927;DHT22;20485;50.992;5.550;2023-05-31T13:16:36;24.50;93.60
33927;DHT22;20485;50.992;5.550;2023-05-31T13:19:04;24.50;92.90
33927;DHT22;20485;50.992;5.550;2023-05-31T13:21:30;24.40;93.20
33927;DHT22;20485;50.992;5.550;2023-05-31T13:23:58;24.60;92.50
33927;DHT22;20485;50.992;5.550;2023-05-31T13:26:25;24.60;91.60
33927;DHT22;20485;50.992;5.550;2023-05-31T13:28:53;24.60;91.60
33927;DHT22;20485;50.992;5.550;2023-05-31T13:31:19;24.60;92.70
33927;DHT22;20485;50.992;5.550;2023-05-31T13:33:45;24.30;90.80
33927;DHT22;20485;50.992;5.550;2023-05-31T13:36:13;24.30;91.40
33927;DHT22;20485;50.992;5.550;2023-05-31T13:38:40;24.40;92.40
33927;DHT22;20485;50.992;5.550;2023-05-31T13:41:06;24.70;91.70
33927;DHT22;20485;50.992;5.550;2023-05-31T13:43:32;24.80;90.00
33927;DHT22;20485;50.992;5.550;2023-05-31T13:45:59;24.80;90.90
33927;DHT22;20485;50.992;5.550;2023-05-31T13:48:26;24.90;91.10
33927;DHT22;20485;50.992;5.550;2023-05-31T13:50:51;24.70;88.20
33927;DHT22;20485;50.992;5.550;2023-05-31T13:53:18;24.80;90.20
33927;DHT22;20485;50.992;5.550;2023-05-31T13:55:44;24.80;90.50
33927;DHT22;20485;50.992;5.550;2023-05-31T13:58:11;24.80;88.60
33927;DHT22;20485;50.992;5.550;2023-05-31T14:00:37;24.90;90.00
33927;DHT22;20485;50.992;5.550;2023-05-31T14:03:03;25.10;89.50
33927;DHT22;20485;50.992;5.550;2023-05-31T14:05:29;25.10;89.70
33927;DHT22;20485;50.992;5.550;2023-05-31T14:07:55;25.20;90.50
33927;DHT22;20485;50.992;5.550;2023-05-31T14:10:23;25.40;88.80
33927;DHT22;20485;50.992;5.550;2023-05-31T14:12:48;25.10;87.80
33927;DHT22;20485;50.992;5.550;2023-05-31T14:15:15;25.20;89.20
33927;DHT22;20485;50.992;5.550;2023-05-31T14:17:41;25.40;87.30
33927;DHT22;20485;50.992;5.550;2023-05-31T14:20:08;25.20;86.00
33927;DHT22;20485;50.992;5.550;2023-05-31T14:22:34;25.20;88.50
33927;DHT22;20485;50.992;5.550;2023-05-31T14:24:59;25.30;88.50
33927;DHT22;20485;50.992;5.550;2023-05-31T14:27:28;25.30;86.30
33927;DHT22;20485;50.992;5.550;2023-05-31T14:29:54;25.20;87.00
33927;DHT22;20485;50.992;5.550;2023-05-31T14:32:25;25.30;85.80
33927;DHT22;20485;50.992;5.550;2023-05-31T14:34:50;25.30;85.70
33927;DHT22;20485;50.992;5.550;2023-05-31T14:37:16;25.40;85.80
33927;DHT22;20485;50.992;5.550;2023-05-31T14:39:42;25.40;84.70
33927;DHT22;20485;50.992;5.550;2023-05-31T14:42:09;25.60;86.40
33927;DHT22;20485;50.992;5.550;2023-05-31T14:44:35;25.70;83.80
33927;DHT22;20485;50.992;5.550;2023-05-31T14:47:03;25.90;82.60
33927;DHT22;20485;50.992;5.550;2023-05-31T14:49:29;25.60;81.30
33927;DHT22;20485;50.992;5.550;2023-05-31T14:51:55;25.90;83.70
33927;DHT22;20485;50.992;5.550;2023-05-31T14:54:24;26.40;84.10
33927;DHT22;20485;50.992;5.550;2023-05-31T14:56:50;26.80;81.70
33927;DHT22;20485;50.992;5.550;2023-05-31T14:59:17;27.30;81.10
33927;DHT22;20485;50.992;5.550;2023-05-31T15:01:43;27.40;79.60
33927;DHT22;20485;50.992;5.550;2023-05-31T15:04:13;27.50;79.90
33927;DHT22;20485;50.992;5.550;2023-05-31T15:06:40;27.70;79.00
33927;DHT22;20485;50.992;5.550;2023-05-31T15:09:07;27.90;78.20
33927;DHT22;20485;50.992;5.550;2023-05-31T15:11:34;28.60;76.30
33927;DHT22;20485;50.992;5.550;2023-05-31T15:13:59;29.40;76.20
33927;DHT22;20485;50.992;5.550;2023-05-31T15:16:25;29.60;73.20
33927;DHT22;20485;50.992;5.550;2023-05-31T15:18:52;30.70;71.40
33927;DHT22;20485;50.992;5.550;2023-05-31T15:21:18;31.20;69.60
33927;DHT22;20485;50.992;5.550;2023-05-31T15:23:45;30.10;70.90
33927;DHT22;20485;50.992;5.550;2023-05-31T15:26:11;30.60;68.20
33927;DHT22;20485;50.992;5.550;2023-05-31T15:28:37;31.40;70.00
33927;DHT22;20485;50.992;5.550;2023-05-31T15:31:03;30.70;67.80
33927;DHT22;20485;50.992;5.550;2023-05-31T15:33:39;30.40;66.10
33927;DHT22;20485;50.992;5.550;2023-05-31T15:36:06;30.60;65.10
33927;DHT22;20485;50.992;5.550;2023-05-31T15:38:32;31.10;66.00
33927;DHT22;20485;50.992;5.550;2023-05-31T15:40:59;30.60;64.80
33927;DHT22;20485;50.992;5.550;2023-05-31T15:43:25;30.40;64.10
33927;DHT22;20485;50.992;5.550;2023-05-31T15:45:52;30.60;65.20
33927;DHT22;20485;50.992;5.550;2023-05-31T15:48:18;29.50;65.10
33927;DHT22;20485;50.992;5.550;2023-05-31T15:50:44;30.50;66.10
33927;DHT22;20485;50.992;5.550;2023-05-31T15:53:10;29.90;65.10
33927;DHT22;20485;50.992;5.550;2023-05-31T15:55:36;30.60;65.70